Airfield :







YOU CAN JOIN US ON...

 
LOGIN :

Register | Disclaimer

   EN    FR    IT 

 









Legend :    VFR   Marginal VFR   IFR   Intensive IFR   Very Intensive IFR
Visi :
Ceiling :
>= 8 km
>= 3000ft
5 to 8 km
1000 to 3000 ft
1500m to 5 km
500 to 1000 ft
800 to 1500m
200 to 500 ft
< 800m
< 200 ft
Symbols :   Thunderstorms  Fog  Heavy snow  Heavy precipitations  Wind > 20 kt






- Airport Elevation : 489 ft


KHUL - Houlton International

CURRENT METAR :
  • 191653Z AUTO 29006G14KT 10SM FEW026 SCT036 OVC045 23/16 A2987 RMK AO2 RAB1558E08 SLP115 P0000 T02280161

EXPIRED METARs :
  • 191553Z AUTO 28010G16KT 10SM SCT026 OVC034 21/16 A2987 RMK AO2 SLP114 T02110156
  • 191453Z AUTO 30010KT 10SM FEW021 BKN026 BKN055 21/16 A2986 RMK AO2 SLP112 T02060156 51011
  • 191353Z AUTO 33009KT 10SM OVC018 20/16 A2985 RMK AO2 SLP108 T02000156

TAF KHUL
Valid from the 19 at 12:00 until the 20 at 12:00 UTC


191120Z 1912/2012 27004KT 5SM -DZ BR OVC009
FM191230 29006KT P6SM BKN016
FM191430 29008KT P6SM BKN026
FM191730 28007KT P6SM SCT035
FM200000 27004KT P6SM FEW045 SCT110
FM200400 VRB02KT P6SM FEW200
TEMPO 2007/2011 2SM BR FEW003
KZBW FIR / North America



MET'MAP, your aeronautical weather chart ! - Copyright ORBIFLY December 2007 - Disclaimer

ORBIFLY MET'MAP TEAM :

Programming & Development : Alexandra Zaïnal
Original concept : Baudouin d'Aumeries
Technical & hardware support : Manuel Goepfert
Assistance : Marc-Olivier Méhu




SOURCES & CREDITS :

   NOAA